Time;durP1;ratioP1;P1;durP2;ratioP2;P2;SDS_P1;SDS_P2;PMS_P1;PMS_P2;Temp;Humidity;BMP_temperature;BMP_pressure;BME280_temperature;BME280_humidity;BME280_pressure;Samples;Min_cycle;Max_cycle;Signal;HPM_P1;HPM_P2
2023/01/30 00:02:27;;;;;;;46.08;20.13;;;;;;;-3.47;94.71;96838.28;5042640;28;20041;-85
2023/01/30 00:04:54;;;;;;;41.33;18.38;;;;;;;-3.37;94.19;96839.66;5036480;28;20041;-87
2023/01/30 00:07:20;;;;;;;49.15;19.48;;;;;;;-3.46;94.21;96837.25;5037654;28;20052;-87
2023/01/30 00:09:47;;;;;;;38.55;17.80;;;;;;;-3.40;94.44;96827.56;5039719;28;20037;-85
2023/01/30 00:12:13;;;;;;;56.45;23.20;;;;;;;-3.44;94.07;96829.88;5044925;28;20041;-82
2023/01/30 00:14:39;;;;;;;62.50;19.30;;;;;;;-3.42;93.78;96822.47;5041844;28;20049;-82
2023/01/30 00:17:06;;;;;;;38.53;17.75;;;;;;;-3.39;93.39;96825.72;5033344;28;20037;-83
2023/01/30 00:19:34;;;;;;;37.58;18.35;;;;;;;-3.50;93.71;96825.44;5035389;28;20045;-82
2023/01/30 00:22:00;;;;;;;51.03;23.30;;;;;;;-3.53;93.94;96820.53;5034595;28;20037;-83
2023/01/30 00:24:27;;;;;;;38.70;18.05;;;;;;;-3.54;93.84;96815.44;5043866;28;20037;-83
2023/01/30 00:26:53;;;;;;;38.47;18.27;;;;;;;-3.54;93.79;96818.09;5036312;28;20086;-83
2023/01/30 00:29:20;;;;;;;43.78;19.05;;;;;;;-3.48;93.66;96811.88;5045374;28;20044;-85
2023/01/30 00:31:46;;;;;;;42.90;18.98;;;;;;;-3.51;93.17;96805.13;5040736;28;20041;-84
2023/01/30 00:34:12;;;;;;;42.22;18.98;;;;;;;-3.48;92.65;96812.72;5039109;28;20041;-82
2023/01/30 00:36:40;;;;;;;39.53;19.08;;;;;;;-3.58;93.11;96800.91;5036567;28;20399;-83
2023/01/30 00:39:07;;;;;;;38.72;18.55;;;;;;;-3.60;93.66;96787.00;5043589;28;20041;-82
2023/01/30 00:47:07;;;;;;;42.95;18.10;;;;;;;-3.64;93.78;96776.00;5035356;28;20063;-82
2023/01/30 00:49:34;;;;;;;37.13;18.02;;;;;;;-3.65;93.60;96779.69;5040926;28;20451;-82
2023/01/30 00:52:02;;;;;;;36.85;18.00;;;;;;;-3.60;93.66;96771.88;5039760;28;20049;-82
2023/01/30 00:54:28;;;;;;;42.92;18.27;;;;;;;-3.60;93.47;96771.88;5038516;28;20409;-84
2023/01/30 00:56:55;;;;;;;40.90;18.60;;;;;;;-3.58;93.21;96764.47;5042937;28;20048;-83
2023/01/30 00:59:21;;;;;;;42.80;18.13;;;;;;;-3.57;92.88;96766.09;5042769;28;20056;-84
2023/01/30 01:01:48;;;;;;;38.53;18.75;;;;;;;-3.57;93.04;96765.28;5038779;28;20060;-81
2023/01/30 01:04:14;;;;;;;39.85;19.33;;;;;;;-3.62;93.26;96763.25;5036359;28;20077;-82
2023/01/30 01:06:41;;;;;;;40.15;18.33;;;;;;;-3.61;93.14;96761.41;5040516;28;20041;-86
2023/01/30 01:09:09;;;;;;;42.75;19.48;;;;;;;-3.61;93.35;96758.75;5048778;28;20037;-83
2023/01/30 01:11:36;;;;;;;43.67;18.48;;;;;;;-3.61;93.36;96758.75;5037609;28;20085;-84
2023/01/30 01:14:04;;;;;;;42.45;20.33;;;;;;;-3.63;93.29;96756.31;5033232;28;20064;-86
2023/01/30 01:16:32;;;;;;;48.15;18.77;;;;;;;-3.61;93.31;96759.56;5034111;28;20453;-86
2023/01/30 01:18:59;;;;;;;41.25;18.05;;;;;;;-3.61;93.29;96756.09;5036116;28;20046;-85
2023/01/30 01:21:25;;;;;;;43.13;19.33;;;;;;;-3.66;93.34;96751.41;5037425;28;20042;-87
2023/01/30 01:23:53;;;;;;;43.20;18.50;;;;;;;-3.60;93.50;96749.72;5033161;28;20721;-83
2023/01/30 01:26:21;;;;;;;41.58;19.42;;;;;;;-3.63;93.46;96745.66;5032534;28;20472;-83
2023/01/30 01:28:48;;;;;;;48.17;18.63;;;;;;;-3.63;93.38;96740.34;5033675;28;20064;-89
2023/01/30 01:31:16;;;;;;;52.97;18.80;;;;;;;-3.66;93.29;96743.44;5043639;28;20049;-85
2023/01/30 01:33:43;;;;;;;66.47;20.33;;;;;;;-3.67;93.43;96747.94;5039745;28;20482;-87
2023/01/30 01:36:09;;;;;;;72.05;19.70;;;;;;;-3.54;93.35;96754.19;5039072;28;20045;-83
2023/01/30 01:38:37;;;;;;;56.13;18.67;;;;;;;-3.56;92.86;96751.75;5041698;28;20052;-86
2023/01/30 01:41:04;;;;;;;65.68;20.40;;;;;;;-3.62;92.78;96747.28;5035583;28;20091;-84
2023/01/30 01:43:34;;;;;;;67.53;19.85;;;;;;;-3.67;93.31;96728.50;5034530;28;20526;-85
2023/01/30 01:46:06;;;;;;;37.95;17.65;;;;;;;-3.64;93.13;96728.06;5043073;28;20038;-87
2023/01/30 01:48:36;;;;;;;63.50;19.05;;;;;;;-3.66;93.12;96719.47;5032757;28;20052;-87
2023/01/30 01:51:05;;;;;;;43.95;19.40;;;;;;;-3.64;93.02;96712.09;5039325;28;20041;-87
2023/01/30 01:53:36;;;;;;;42.30;19.17;;;;;;;-3.64;92.81;96711.28;5032166;28;20057;-84
2023/01/30 01:56:05;;;;;;;68.70;20.65;;;;;;;-3.65;92.85;96715.81;5034503;28;20038;-84
2023/01/30 01:58:37;;;;;;;56.40;20.75;;;;;;;-3.61;92.75;96724.97;5040895;28;20041;-85
2023/01/30 02:01:04;;;;;;;44.03;19.02;;;;;;;-3.55;92.48;96723.28;5032360;28;20045;-87
2023/01/30 02:03:36;;;;;;;62.70;23.55;;;;;;;-3.57;92.34;96728.81;5033391;28;20100;-85
2023/01/30 02:06:04;;;;;;;63.15;19.42;;;;;;;-3.57;92.30;96728.81;5032651;28;20045;-84
2023/01/30 02:08:34;;;;;;;47.03;19.58;;;;;;;-3.57;92.36;96734.16;5035969;28;20048;-84
2023/01/30 02:11:07;;;;;;;47.80;18.35;;;;;;;-3.51;92.08;96725.28;5036100;28;20044;-83
2023/01/30 02:13:36;;;;;;;49.05;20.50;;;;;;;-3.58;92.18;96721.88;5040758;28;20033;-85
2023/01/30 02:16:04;;;;;;;43.05;19.42;;;;;;;-3.58;92.41;96731.72;5032190;28;20044;-89
2023/01/30 02:18:34;;;;;;;52.30;19.75;;;;;;;-3.64;92.37;96737.91;5034398;28;20424;-84
2023/01/30 02:21:24;;;;;;;46.75;21.83;;;;;;;-3.63;92.50;96734.22;5033361;28;20041;-83
2023/01/30 02:24:16;;;;;;;51.13;21.98;;;;;;;-3.66;92.75;96735.44;5033869;28;20113;-84
2023/01/30 02:26:54;;;;;;;45.08;19.77;;;;;;;-3.67;92.73;96728.50;5033520;28;20033;-85
2023/01/30 02:29:47;;;;;;;44.00;18.55;;;;;;;-3.67;92.62;96728.50;5032560;28;20533;-84
2023/01/30 02:32:24;;;;;;;43.07;18.63;;;;;;;-3.73;92.73;96724.06;5034455;28;20056;-87
2023/01/30 02:34:59;;;;;;;46.35;20.25;;;;;;;-3.71;92.90;96724.66;5035918;28;20280;-82
2023/01/30 02:37:37;;;;;;;45.20;19.75;;;;;;;-3.67;92.76;96739.16;5037081;28;20065;-83
2023/01/30 02:40:16;;;;;;;43.72;19.23;;;;;;;-3.66;92.45;96732.78;5039932;28;20055;-83
2023/01/30 02:42:48;;;;;;;50.70;20.25;;;;;;;-3.73;92.55;96729.38;5041115;28;20555;-83
2023/01/30 02:45:23;;;;;;;42.25;19.05;;;;;;;-3.63;92.24;96729.69;5037625;28;20048;-82
2023/01/30 02:48:00;;;;;;;43.90;18.23;;;;;;;-3.60;91.81;96728.44;5037564;28;20041;-83
2023/01/30 02:50:30;;;;;;;52.55;25.10;;;;;;;-3.69;91.83;96722.59;5036943;28;20049;-87
2023/01/30 02:52:57;;;;;;;43.92;19.52;;;;;;;-3.64;92.08;96722.75;5036339;28;20044;-86
2023/01/30 02:55:26;;;;;;;49.35;18.70;;;;;;;-3.57;91.95;96728.81;5036618;28;20044;-84
2023/01/30 02:57:54;;;;;;;45.15;18.77;;;;;;;-3.63;92.18;96729.69;5036205;28;20637;-87
2023/01/30 03:00:23;;;;;;;45.90;20.70;;;;;;;-3.67;92.45;96731.16;5036247;28;20046;-87
2023/01/30 03:03:16;;;;;;;47.88;19.65;;;;;;;-3.63;92.47;96726.22;5036718;28;20053;-83
2023/01/30 03:06:05;;;;;;;50.30;20.45;;;;;;;-3.60;92.49;96726.63;5045220;28;20033;-84
2023/01/30 03:08:39;;;;;;;38.38;18.55;;;;;;;-3.72;92.33;96731.00;5042431;28;20041;-89
2023/01/30 03:11:08;;;;;;;46.30;20.05;;;;;;;-3.73;92.76;96734.72;5038596;28;20041;-86
2023/01/30 03:13:47;;;;;;;50.80;20.95;;;;;;;-3.72;92.70;96726.50;5037155;28;20046;-84
2023/01/30 03:16:18;;;;;;;46.50;21.20;;;;;;;-3.74;92.53;96709.13;5035106;28;20056;-85
2023/01/30 03:18:47;;;;;;;72.05;21.13;;;;;;;-3.74;92.59;96691.31;5041340;28;20036;-86
2023/01/30 03:21:14;;;;;;;46.75;21.33;;;;;;;-3.75;92.30;96689.69;5037786;28;20042;-87
2023/01/30 03:23:40;;;;;;;78.78;22.38;;;;;;;-3.77;92.49;96691.75;5036269;28;20505;-85
2023/01/30 03:26:14;;;;;;;44.55;19.90;;;;;;;-3.78;92.43;96690.13;5036075;28;20029;-84
2023/01/30 03:28:41;;;;;;;75.05;19.20;;;;;;;-3.74;92.43;96687.84;5035454;28;20565;-84
2023/01/30 03:31:08;;;;;;;82.88;19.55;;;;;;;-3.71;92.04;96700.69;5039177;28;20053;-83
2023/01/30 03:33:35;;;;;;;82.72;20.73;;;;;;;-3.75;92.27;96703.00;5046835;28;20045;-87
2023/01/30 03:36:03;;;;;;;73.00;25.13;;;;;;;-3.77;92.54;96690.94;5039379;28;20041;-84
2023/01/30 03:38:30;;;;;;;100.43;26.02;;;;;;;-3.76;92.45;96682.75;5036336;28;20049;-85
2023/01/30 03:40:56;;;;;;;44.63;18.55;;;;;;;-3.66;92.02;96695.53;5040113;28;20050;-82
2023/01/30 03:43:23;;;;;;;43.67;19.35;;;;;;;-3.73;92.36;96697.44;5035996;28;20045;-84
2023/01/30 03:45:49;;;;;;;51.10;23.83;;;;;;;-3.78;92.63;96694.63;5036475;28;20041;-85
2023/01/30 03:48:16;;;;;;;54.05;21.48;;;;;;;-3.77;92.82;96698.91;5035394;28;20037;-88
2023/01/30 03:50:42;;;;;;;46.08;21.35;;;;;;;-3.72;92.47;96701.72;5036535;28;20041;-83
2023/01/30 03:53:10;;;;;;;46.03;21.55;;;;;;;-3.74;92.60;96701.16;5051964;28;20397;-83
2023/01/30 03:55:36;;;;;;;48.85;20.33;;;;;;;-3.76;92.52;96692.56;5037341;28;20049;-83
2023/01/30 03:58:03;;;;;;;108.53;23.75;;;;;;;-3.76;92.54;96684.56;5035863;28;20474;-86
2023/01/30 04:00:29;;;;;;;96.20;22.15;;;;;;;-3.76;92.43;96677.44;5045015;28;20494;-82
2023/01/30 04:02:57;;;;;;;91.15;22.15;;;;;;;-3.74;92.44;96670.03;5037430;28;20050;-85
2023/01/30 04:05:24;;;;;;;60.05;20.90;;;;;;;-3.73;92.53;96676.97;5036234;28;20041;-83
2023/01/30 04:07:51;;;;;;;82.88;21.80;;;;;;;-3.70;92.47;96670.41;5041620;28;20064;-86
2023/01/30 04:10:19;;;;;;;65.55;19.13;;;;;;;-3.64;91.94;96672.19;5036901;28;20056;-85
2023/01/30 04:12:46;;;;;;;104.20;22.63;;;;;;;-3.69;92.05;96682.69;5034915;28;20068;-84
2023/01/30 04:15:12;;;;;;;88.20;20.02;;;;;;;-3.66;92.21;96682.22;5050217;28;20127;-84
2023/01/30 04:17:39;;;;;;;108.70;22.92;;;;;;;-3.64;91.93;96685.50;5035332;28;20493;-84
2023/01/30 04:20:07;;;;;;;64.20;20.50;;;;;;;-3.67;91.99;96693.91;5034681;28;20452;-83
2023/01/30 04:22:33;;;;;;;86.07;21.63;;;;;;;-3.68;92.27;96695.75;5040316;28;20068;-83
2023/01/30 04:25:00;;;;;;;74.85;21.05;;;;;;;-3.66;92.09;96703.50;5041755;28;20048;-81
2023/01/30 04:27:27;;;;;;;121.65;21.63;;;;;;;-3.63;92.13;96686.31;5033268;28;20037;-86
2023/01/30 04:29:54;;;;;;;66.28;29.38;;;;;;;-3.61;91.99;96681.56;5034277;28;20034;-80
2023/01/30 04:32:20;;;;;;;43.60;19.45;;;;;;;-3.54;91.66;96679.66;5033921;28;20045;-82
2023/01/30 04:34:47;;;;;;;43.13;19.40;;;;;;;-3.55;91.58;96684.19;5035289;28;20041;-82
2023/01/30 04:37:13;;;;;;;61.95;25.42;;;;;;;-3.60;91.71;96688.50;5033764;28;20044;-86
2023/01/30 04:39:40;;;;;;;47.00;22.08;;;;;;;-3.60;91.81;96689.34;5035703;28;20048;-88
2023/01/30 04:42:06;;;;;;;40.65;20.13;;;;;;;-3.55;91.71;96654.91;5044784;28;20038;-86
2023/01/30 04:44:34;;;;;;;44.88;20.30;;;;;;;-3.64;91.87;96664.19;5042509;28;20494;-82
2023/01/30 04:47:00;;;;;;;46.65;19.10;;;;;;;-3.58;92.00;96652.66;5035992;28;20049;-84
2023/01/30 04:49:27;;;;;;;46.60;21.85;;;;;;;-3.61;91.69;96657.59;5034528;28;20604;-84
2023/01/30 04:51:54;;;;;;;42.17;20.05;;;;;;;-3.65;91.81;96649.28;5035407;28;20466;-86
2023/01/30 04:54:20;;;;;;;46.40;21.77;;;;;;;-3.62;91.80;96654.13;5038298;28;20056;-82
2023/01/30 04:56:47;;;;;;;41.03;18.70;;;;;;;-3.59;91.69;96653.72;5039093;28;20053;-86
2023/01/30 04:59:13;;;;;;;42.42;21.38;;;;;;;-3.64;91.83;96658.88;5034284;28;20045;-84
2023/01/30 05:01:41;;;;;;;48.40;21.70;;;;;;;-3.63;91.98;96649.84;5035467;28;20041;-85
2023/01/30 05:04:08;;;;;;;40.03;19.65;;;;;;;-3.66;91.94;96639.63;5034123;28;20041;-86
2023/01/30 05:06:36;;;;;;;44.58;20.95;;;;;;;-3.67;92.09;96622.84;5033806;28;20041;-83
2023/01/30 05:09:03;;;;;;;45.20;22.05;;;;;;;-3.69;92.12;96608.16;5033700;28;20398;-88
2023/01/30 05:11:31;;;;;;;48.53;21.80;;;;;;;-3.71;92.23;96603.06;5038307;28;20052;-86
2023/01/30 05:13:57;;;;;;;44.47;21.67;;;;;;;-3.72;92.31;96593.44;5045214;28;20045;-85
2023/01/30 05:16:24;;;;;;;46.35;20.05;;;;;;;-3.68;92.16;96601.78;5040016;28;20041;-84
2023/01/30 05:18:52;;;;;;;48.90;23.67;;;;;;;-3.69;92.18;96597.50;5034004;28;20041;-84
2023/01/30 05:21:21;;;;;;;43.47;21.95;;;;;;;-3.70;92.19;96590.56;5040991;28;20826;-83
2023/01/30 05:23:47;;;;;;;48.40;20.83;;;;;;;-3.70;92.26;96595.91;5034888;28;20045;-83
2023/01/30 05:26:15;;;;;;;45.47;21.05;;;;;;;-3.72;92.34;96605.94;5034498;28;20045;-87
2023/01/30 05:28:42;;;;;;;44.17;20.15;;;;;;;-3.66;92.20;96613.03;5034862;28;20043;-81
2023/01/30 05:31:11;;;;;;;41.30;18.67;;;;;;;-3.64;92.01;96604.84;5034488;28;20076;-83
2023/01/30 05:33:39;;;;;;;41.83;19.15;;;;;;;-3.66;91.65;96602.38;5036218;28;20042;-86
2023/01/30 05:36:08;;;;;;;41.72;19.40;;;;;;;-3.61;91.23;96604.38;5040958;28;20769;-82
2023/01/30 05:38:34;;;;;;;42.00;18.88;;;;;;;-3.60;91.11;96619.31;5034530;28;20045;-87
2023/01/30 05:41:03;;;;;;;40.10;19.80;;;;;;;-3.56;90.85;96615.16;5037961;28;20037;-84
2023/01/30 05:43:30;;;;;;;44.83;20.95;;;;;;;-3.51;90.17;96613.47;5034314;28;20426;-84
2023/01/30 05:45:59;;;;;;;45.10;19.40;;;;;;;-3.51;90.36;96616.13;5035550;28;20560;-81
2023/01/30 05:48:27;;;;;;;43.88;21.33;;;;;;;-3.52;90.60;96601.19;5035105;28;20053;-84
2023/01/30 05:50:54;;;;;;;41.83;18.67;;;;;;;-3.54;91.21;96605.13;5035590;28;20042;-87
2023/01/30 05:53:24;;;;;;;42.45;18.17;;;;;;;-3.57;91.75;96611.69;5035518;28;20034;-83
2023/01/30 05:55:55;;;;;;;44.58;19.80;;;;;;;-3.61;91.83;96605.19;5043373;28;20051;-81
2023/01/30 05:58:21;;;;;;;42.78;19.00;;;;;;;-3.61;91.75;96607.84;5033730;28;20712;-82
2023/01/30 06:00:48;;;;;;;39.20;19.27;;;;;;;-3.59;91.29;96607.66;5034957;28;20037;-81
2023/01/30 06:03:14;;;;;;;37.35;17.80;;;;;;;-3.55;91.45;96611.47;5034608;28;20048;-84
2023/01/30 06:05:41;;;;;;;39.97;18.85;;;;;;;-3.55;90.76;96596.34;5034328;28;20053;-86
2023/01/30 06:08:07;;;;;;;41.72;19.63;;;;;;;-3.53;90.20;96596.91;5034345;28;20045;-82
2023/01/30 06:10:35;;;;;;;40.60;19.30;;;;;;;-3.51;90.00;96589.50;5041488;28;20045;-87
2023/01/30 06:13:02;;;;;;;41.22;17.58;;;;;;;-3.49;89.70;96592.78;5046188;28;20037;-87
2023/01/30 06:15:28;;;;;;;38.97;18.08;;;;;;;-3.43;89.37;96591.88;5040390;28;20045;-86
2023/01/30 06:17:55;;;;;;;40.17;18.02;;;;;;;-3.44;89.54;96600.91;5038661;28;20064;-87
2023/01/30 06:20:21;;;;;;;40.60;17.20;;;;;;;-3.37;89.60;96600.00;5039371;28;20053;-86
2023/01/30 06:22:48;;;;;;;39.20;18.65;;;;;;;-3.37;89.02;96600.00;5038979;28;20045;-85
2023/01/30 06:25:15;;;;;;;38.55;18.33;;;;;;;-3.32;88.84;96608.94;5038059;28;20033;-87
2023/01/30 06:27:45;;;;;;;34.38;17.60;;;;;;;-3.36;89.14;96604.28;5038582;28;20049;-88
2023/01/30 06:30:12;;;;;;;39.67;17.70;;;;;;;-3.31;88.59;96588.47;5049749;28;20453;-85
2023/01/30 06:32:40;;;;;;;39.88;18.42;;;;;;;-3.34;88.71;96595.06;5040530;28;20037;-83
2023/01/30 06:35:07;;;;;;;38.83;16.92;;;;;;;-3.31;88.95;96591.13;5038701;28;20037;-87
2023/01/30 06:37:34;;;;;;;40.35;16.52;;;;;;;-3.26;88.76;96602.72;5052585;28;20494;-82
2023/01/30 06:40:00;;;;;;;35.97;17.95;;;;;;;-3.17;88.17;96600.56;5039013;28;20041;-85
2023/01/30 06:42:27;;;;;;;36.22;17.45;;;;;;;-3.09;87.80;96602.91;5050213;28;20041;-83
2023/01/30 06:44:55;;;;;;;41.05;17.45;;;;;;;-3.01;87.25;96607.13;5043800;28;20037;-87
2023/01/30 06:47:21;;;;;;;40.88;17.40;;;;;;;-2.86;87.19;96612.06;5037930;28;20060;-85
2023/01/30 06:49:48;;;;;;;37.38;16.75;;;;;;;-2.83;86.71;96616.91;5041546;28;20544;-83
2023/01/30 06:52:15;;;;;;;38.08;18.23;;;;;;;-2.83;86.44;96616.91;5039815;28;20045;-87
2023/01/30 06:54:41;;;;;;;37.15;17.73;;;;;;;-2.76;86.38;96613.13;5040177;28;20037;-83
2023/01/30 06:57:08;;;;;;;35.38;17.00;;;;;;;-2.70;85.96;96611.41;5056084;28;20041;-84
2023/01/30 06:59:34;;;;;;;33.67;16.23;;;;;;;-2.73;85.83;96611.84;5039062;28;20489;-83
2023/01/30 07:02:02;;;;;;;38.45;18.70;;;;;;;-2.69;86.22;96597.03;5040265;28;20391;-84
2023/01/30 07:04:28;;;;;;;35.83;15.88;;;;;;;-2.50;85.60;96592.44;5054581;28;20056;-84
2023/01/30 07:06:55;;;;;;;35.80;17.17;;;;;;;-2.47;85.36;96583.97;5038355;28;20044;-88
2023/01/30 07:09:22;;;;;;;30.90;15.60;;;;;;;-2.51;85.34;96588.94;5041099;28;20075;-83
2023/01/30 07:11:49;;;;;;;35.45;18.05;;;;;;;-2.45;85.00;96592.56;5042059;28;20048;-84
2023/01/30 07:14:16;;;;;;;34.42;16.92;;;;;;;-2.42;84.46;96586.75;5037376;28;20057;-83
2023/01/30 07:16:42;;;;;;;33.53;18.15;;;;;;;-2.40;84.45;96593.50;5047245;28;20650;-85
2023/01/30 07:19:10;;;;;;;33.40;16.88;;;;;;;-2.38;84.55;96585.25;5037210;28;20053;-87
2023/01/30 07:21:37;;;;;;;35.55;15.57;;;;;;;-2.35;84.81;96579.44;5038087;28;20037;-88
2023/01/30 07:24:04;;;;;;;32.00;16.33;;;;;;;-2.31;83.59;96571.81;5046371;28;20047;-85
2023/01/30 07:26:30;;;;;;;33.72;14.98;;;;;;;-2.26;83.93;96558.59;5042161;28;20045;-86
2023/01/30 07:28:57;;;;;;;34.05;15.80;;;;;;;-2.22;83.22;96559.75;5041903;28;20045;-86
2023/01/30 07:31:23;;;;;;;30.35;15.15;;;;;;;-2.14;81.94;96570.06;5037846;28;20045;-84
2023/01/30 07:33:50;;;;;;;31.55;15.73;;;;;;;-2.06;81.81;96575.06;5038244;28;20418;-81
2023/01/30 07:36:17;;;;;;;28.60;13.65;;;;;;;-1.94;81.09;96578.53;5037712;28;20037;-86
2023/01/30 07:38:44;;;;;;;27.77;14.07;;;;;;;-1.93;80.80;96568.66;5037832;28;20037;-89
2023/01/30 07:41:10;;;;;;;29.05;13.70;;;;;;;-1.84;80.02;96562.75;5038991;28;20038;-85
2023/01/30 07:43:37;;;;;;;27.55;13.45;;;;;;;-1.75;79.17;96557.06;5046323;28;20054;-82
2023/01/30 07:46:03;;;;;;;28.45;13.48;;;;;;;-1.70;78.62;96546.50;5037539;28;20391;-87
2023/01/30 07:48:30;;;;;;;26.10;13.65;;;;;;;-1.66;78.60;96558.31;5037446;28;20048;-83
2023/01/30 07:50:56;;;;;;;24.98;15.00;;;;;;;-1.64;77.56;96556.22;5037771;28;20099;-83
2023/01/30 07:53:24;;;;;;;26.13;12.70;;;;;;;-1.61;77.64;96545.09;5037079;28;20091;-88
2023/01/30 07:55:51;;;;;;;25.85;13.45;;;;;;;-1.56;78.05;96536.38;5037667;28;20040;-87
2023/01/30 07:58:17;;;;;;;26.83;14.38;;;;;;;-1.51;76.98;96533.78;5047401;28;20420;-88
2023/01/30 08:00:44;;;;;;;25.70;12.80;;;;;;;-1.46;76.91;96534.72;5042923;28;20045;-87
2023/01/30 08:03:12;;;;;;;28.17;12.55;;;;;;;-1.39;77.36;96531.88;5044923;28;20040;-84
2023/01/30 08:05:38;;;;;;;25.08;12.70;;;;;;;-1.34;75.90;96524.78;5038034;28;20037;-85
2023/01/30 08:08:05;;;;;;;25.27;13.63;;;;;;;-1.31;75.09;96518.13;5036857;28;20034;-88
2023/01/30 08:10:33;;;;;;;23.58;11.45;;;;;;;-1.15;75.94;96529.91;5040334;28;20045;-84
2023/01/30 08:12:59;;;;;;;24.63;12.27;;;;;;;-1.12;74.01;96535.59;5045835;28;20374;-84
2023/01/30 08:15:26;;;;;;;24.67;11.73;;;;;;;-1.03;74.05;96530.69;5037289;28;20045;-84
2023/01/30 08:17:56;;;;;;;21.90;11.00;;;;;;;-1.01;73.79;96525.09;5037136;28;20048;-85
2023/01/30 08:20:23;;;;;;;23.92;12.07;;;;;;;-0.99;72.77;96521.16;5036741;28;20056;-86
2023/01/30 08:22:50;;;;;;;21.83;10.57;;;;;;;-0.89;73.31;96525.84;5037430;28;20045;-84
2023/01/30 08:25:16;;;;;;;24.27;14.38;;;;;;;-0.84;71.79;96517.91;5037262;28;20038;-83
2023/01/30 08:27:44;;;;;;;23.33;11.05;;;;;;;-0.78;72.95;96522.31;5045687;28;20045;-87
2023/01/30 08:30:12;;;;;;;96.10;38.67;;;;;;;-0.77;72.21;96509.75;5036231;28;20042;-83
2023/01/30 08:32:38;;;;;;;21.17;11.82;;;;;;;-0.70;71.20;96513.06;5037254;28;20037;-84
2023/01/30 08:35:06;;;;;;;21.60;11.38;;;;;;;-0.59;70.56;96512.19;5038224;28;20033;-87
2023/01/30 08:37:32;;;;;;;21.27;10.82;;;;;;;-0.51;70.67;96495.75;5057799;28;20489;-82
2023/01/30 08:39:59;;;;;;;20.83;10.25;;;;;;;-0.47;70.41;96502.22;5043592;28;20397;-84
2023/01/30 08:42:25;;;;;;;20.13;9.50;;;;;;;-0.40;70.69;96505.53;5036779;28;20402;-86
2023/01/30 08:44:53;;;;;;;19.10;9.15;;;;;;;-0.30;70.04;96511.03;5044375;28;20048;-85
2023/01/30 08:47:19;;;;;;;19.80;10.15;;;;;;;-0.21;69.48;96506.06;5036968;28;20056;-84
2023/01/30 08:49:46;;;;;;;19.05;10.27;;;;;;;-0.16;69.80;96508.81;5038011;28;20414;-80
2023/01/30 08:52:12;;;;;;;17.33;9.57;;;;;;;-0.06;70.01;96502.78;5045424;28;20247;-84
2023/01/30 08:54:39;;;;;;;18.45;9.18;;;;;;;-0.03;70.05;96499.63;5037160;28;20430;-85
2023/01/30 08:57:05;;;;;;;18.63;9.02;;;;;;;-0.02;70.84;96504.72;5036635;28;20041;-85
2023/01/30 08:59:32;;;;;;;18.80;9.95;;;;;;;-0.02;70.49;96498.56;5037358;28;20045;-84
2023/01/30 09:01:59;;;;;;;18.40;9.45;;;;;;;-0.08;71.28;96496.88;5037521;28;20049;-86
2023/01/30 09:04:26;;;;;;;19.20;8.60;;;;;;;-0.03;71.16;96483.56;5036847;28;20490;-84
2023/01/30 09:06:52;;;;;;;19.50;9.00;;;;;;;0.08;71.25;96473.81;5037530;28;20056;-84
2023/01/30 09:09:19;;;;;;;17.98;9.55;;;;;;;0.15;71.56;96472.56;5039462;28;20053;-83
2023/01/30 09:11:46;;;;;;;19.58;9.45;;;;;;;0.51;70.22;96481.03;5041557;28;20041;-84
2023/01/30 09:14:13;;;;;;;16.70;8.48;;;;;;;0.70;70.14;96468.91;5037096;28;20092;-83
2023/01/30 09:16:40;;;;;;;17.77;9.55;;;;;;;0.71;69.27;96470.53;5036698;28;20390;-85
2023/01/30 09:19:07;;;;;;;17.38;8.68;;;;;;;0.54;70.80;96475.16;5034799;28;20056;-86
2023/01/30 09:21:34;;;;;;;15.32;7.75;;;;;;;0.70;70.69;96479.63;5036628;28;20053;-86
2023/01/30 09:24:01;;;;;;;17.67;9.27;;;;;;;0.75;70.93;96477.00;5044508;28;20049;-87
2023/01/30 09:26:27;;;;;;;17.05;7.95;;;;;;;1.11;70.28;96466.63;5036576;28;20045;-88
2023/01/30 09:28:54;;;;;;;17.55;9.13;;;;;;;1.23;70.45;96472.63;5036218;28;20045;-83
2023/01/30 09:31:20;;;;;;;17.63;9.43;;;;;;;1.30;70.08;96477.78;5044956;28;20052;-85
2023/01/30 09:33:47;;;;;;;15.32;7.57;;;;;;;1.29;70.58;96484.19;5037015;28;20052;-82
2023/01/30 09:36:14;;;;;;;17.38;9.90;;;;;;;1.20;71.09;96462.41;5042675;28;20052;-88
2023/01/30 09:38:41;;;;;;;16.95;7.80;;;;;;;1.21;70.15;96447.13;5036371;28;20049;-85
2023/01/30 09:41:38;;;;;;;18.00;9.30;;;;;;;1.29;70.44;96454.69;5038079;28;20521;-87
2023/01/30 09:44:43;;;;;;;18.48;8.23;;;;;;;1.34;70.90;96448.56;5042318;28;20056;-85
2023/01/30 09:47:12;;;;;;;18.30;8.75;;;;;;;1.25;69.91;96448.22;5038887;28;20045;-83
2023/01/30 09:50:05;;;;;;;15.48;8.48;;;;;;;1.22;70.06;96448.75;5040848;28;20445;-83
2023/01/30 09:52:45;;;;;;;17.30;8.15;;;;;;;1.21;71.48;96442.56;5040541;28;20493;-85
2023/01/30 09:55:18;;;;;;;14.25;7.70;;;;;;;1.33;70.62;96428.16;5039279;28;20045;-84
2023/01/30 09:57:46;;;;;;;15.65;8.48;;;;;;;1.25;70.49;96432.97;5040337;28;20041;-84
2023/01/30 10:00:21;;;;;;;15.68;7.47;;;;;;;1.30;70.09;96424.94;5039671;28;20045;-86
2023/01/30 10:02:53;;;;;;;18.80;9.88;;;;;;;1.38;68.90;96425.53;5040878;28;20045;-89
2023/01/30 10:05:19;;;;;;;18.30;9.95;;;;;;;1.42;68.18;96448.91;5039610;28;20038;-89
2023/01/30 10:08:00;;;;;;;15.05;7.63;;;;;;;1.49;67.02;96448.69;5039664;28;20045;-84
2023/01/30 10:10:41;;;;;;;17.08;8.82;;;;;;;1.84;65.32;96450.78;5046316;28;20051;-84
2023/01/30 10:13:19;;;;;;;17.45;10.35;;;;;;;2.13;63.56;96440.44;5049473;28;20044;-83
2023/01/30 10:15:53;;;;;;;15.35;8.00;;;;;;;2.44;62.78;96437.88;5039879;28;20037;-83
2023/01/30 10:18:47;;;;;;;18.30;8.85;;;;;;;1.88;63.69;96418.84;5038719;28;20046;-82
2023/01/30 10:21:21;;;;;;;15.07;7.75;;;;;;;1.60;63.66;96407.41;5038979;28;20042;-84
2023/01/30 10:24:04;;;;;;;14.57;8.00;;;;;;;1.86;63.77;96418.31;5046919;28;20044;-85
2023/01/30 10:26:31;;;;;;;14.68;7.93;;;;;;;1.75;62.81;96394.09;5039135;28;20045;-86
2023/01/30 10:29:02;;;;;;;18.50;7.90;;;;;;;1.93;63.34;96378.59;5039184;28;20053;-82
2023/01/30 10:31:34;;;;;;;14.80;8.88;;;;;;;2.00;62.22;96373.78;5039644;28;20045;-83
2023/01/30 10:34:04;;;;;;;15.27;8.90;;;;;;;1.81;63.31;96376.94;5039660;28;20050;-83
2023/01/30 10:36:40;;;;;;;13.00;7.20;;;;;;;2.14;63.30;96380.31;5039423;28;20045;-83
2023/01/30 10:39:21;;;;;;;15.82;8.18;;;;;;;2.02;64.20;96382.38;5039164;28;20048;-83
2023/01/30 10:41:56;;;;;;;18.80;8.52;;;;;;;1.85;65.95;96387.16;5041905;28;20064;-83
2023/01/30 10:44:23;;;;;;;14.27;7.55;;;;;;;2.03;64.78;96363.31;5039116;28;20053;-81
2023/01/30 10:47:29;;;;;;;14.05;7.78;;;;;;;1.94;65.81;96362.22;5039739;28;20052;-85
2023/01/30 10:50:02;;;;;;;13.80;7.70;;;;;;;2.07;65.66;96359.03;5005524;28;20049;-86
2023/01/30 10:52:40;;;;;;;16.90;8.70;;;;;;;2.00;66.77;96373.78;5039771;28;20442;-84
2023/01/30 10:55:15;;;;;;;14.63;8.02;;;;;;;2.21;66.20;96370.09;5046842;28;20056;-82
2023/01/30 10:57:53;;;;;;;12.73;7.25;;;;;;;2.23;66.38;96372.53;5038845;28;20045;-91
2023/01/30 11:00:29;;;;;;;14.30;7.95;;;;;;;2.08;67.40;96354.47;5038031;28;20056;-83
2023/01/30 11:03:09;;;;;;;12.25;6.90;;;;;;;2.12;68.07;96347.50;5039350;28;20075;-86
2023/01/30 11:05:45;;;;;;;11.75;7.13;;;;;;;2.13;68.38;96333.00;5039257;28;20513;-84
2023/01/30 11:08:19;;;;;;;14.13;6.53;;;;;;;2.58;67.45;96320.72;5038024;28;20048;-91
2023/01/30 11:10:47;;;;;;;15.93;7.20;;;;;;;2.90;66.99;96322.34;5042944;28;20060;-84
2023/01/30 11:13:17;;;;;;;12.55;6.00;;;;;;;3.03;66.86;96303.78;5045993;28;20598;-85
2023/01/30 11:15:46;;;;;;;11.10;6.20;;;;;;;2.91;66.50;96315.88;5039013;28;20041;-86
2023/01/30 11:18:14;;;;;;;10.38;5.00;;;;;;;2.90;67.40;96308.91;5038191;28;20042;-86
2023/01/30 11:20:42;;;;;;;11.15;5.32;;;;;;;3.07;67.31;96323.66;5038160;28;20041;-85
2023/01/30 11:23:23;;;;;;;9.27;5.40;;;;;;;2.79;67.51;96311.59;5037849;28;20045;-87
2023/01/30 11:25:54;;;;;;;12.73;4.70;;;;;;;2.72;67.90;96299.50;5037637;28;20052;-85
2023/01/30 11:28:20;;;;;;;12.15;5.10;;;;;;;2.80;68.63;96299.75;5053288;28;20489;-89
2023/01/30 11:30:53;;;;;;;8.50;5.20;;;;;;;2.78;68.92;96303.81;5038416;28;20045;-88
2023/01/30 11:33:21;;;;;;;8.55;5.15;;;;;;;2.77;68.27;96291.44;5045419;28;20045;-85
2023/01/30 11:35:54;;;;;;;8.20;4.53;;;;;;;2.74;68.65;96300.03;5046174;28;20383;-90
2023/01/30 11:38:24;;;;;;;10.23;4.80;;;;;;;2.74;69.47;96287.38;5045126;28;20037;-87